sensor_id;sensor_type;location;lat;lon;timestamp;temperature;humidity
27759;DHT22;15148;48.972;12.794;2023-10-13T00:04:52;14.60;99.90
27759;DHT22;15148;48.972;12.794;2023-10-13T00:09:54;14.60;99.90
27759;DHT22;15148;48.972;12.794;2023-10-13T00:14:58;14.60;99.90
27759;DHT22;15148;48.972;12.794;2023-10-13T00:20:06;14.60;99.90
27759;DHT22;15148;48.972;12.794;2023-10-13T00:25:14;14.60;99.90
27759;DHT22;15148;48.972;12.794;2023-10-13T00:30:21;14.60;99.90
27759;DHT22;15148;48.972;12.794;2023-10-13T00:35:27;14.50;99.90
27759;DHT22;15148;48.972;12.794;2023-10-13T00:40:39;14.40;99.90
27759;DHT22;15148;48.972;12.794;2023-10-13T00:45:43;14.40;99.90
27759;DHT22;15148;48.972;12.794;2023-10-13T00:50:45;14.30;99.90
27759;DHT22;15148;48.972;12.794;2023-10-13T00:55:49;14.30;99.90
27759;DHT22;15148;48.972;12.794;2023-10-13T01:00:51;14.30;99.90
27759;DHT22;15148;48.972;12.794;2023-10-13T01:06:19;14.30;99.90
27759;DHT22;15148;48.972;12.794;2023-10-13T01:11:21;14.20;99.90
27759;DHT22;15148;48.972;12.794;2023-10-13T01:16:25;14.20;99.90
27759;DHT22;15148;48.972;12.794;2023-10-13T01:21:29;14.20;99.90
27759;DHT22;15148;48.972;12.794;2023-10-13T01:26:31;14.10;99.90
27759;DHT22;15148;48.972;12.794;2023-10-13T01:31:41;14.10;99.90
27759;DHT22;15148;48.972;12.794;2023-10-13T01:36:54;14.00;99.90
27759;DHT22;15148;48.972;12.794;2023-10-13T01:41:56;14.10;99.90
27759;DHT22;15148;48.972;12.794;2023-10-13T01:46:59;14.10;99.90
27759;DHT22;15148;48.972;12.794;2023-10-13T01:52:02;14.00;99.90
27759;DHT22;15148;48.972;12.794;2023-10-13T01:57:05;13.90;99.90
27759;DHT22;15148;48.972;12.794;2023-10-13T02:02:07;13.90;99.90
27759;DHT22;15148;48.972;12.794;2023-10-13T02:07:09;14.00;99.90
27759;DHT22;15148;48.972;12.794;2023-10-13T02:12:16;14.00;99.90
27759;DHT22;15148;48.972;12.794;2023-10-13T02:17:18;13.90;99.90
27759;DHT22;15148;48.972;12.794;2023-10-13T02:22:23;14.00;99.90
27759;DHT22;15148;48.972;12.794;2023-10-13T02:27:32;13.90;99.90
27759;DHT22;15148;48.972;12.794;2023-10-13T02:32:42;13.80;99.90
27759;DHT22;15148;48.972;12.794;2023-10-13T02:37:46;13.80;99.90
27759;DHT22;15148;48.972;12.794;2023-10-13T02:42:56;13.70;99.90
27759;DHT22;15148;48.972;12.794;2023-10-13T02:47:58;13.60;99.90
27759;DHT22;15148;48.972;12.794;2023-10-13T02:53:14;13.60;99.90
27759;DHT22;15148;48.972;12.794;2023-10-13T02:58:20;13.50;99.90
27759;DHT22;15148;48.972;12.794;2023-10-13T03:03:22;13.50;99.90
27759;DHT22;15148;48.972;12.794;2023-10-13T03:08:24;13.50;99.90
27759;DHT22;15148;48.972;12.794;2023-10-13T03:13:29;13.40;99.90
27759;DHT22;15148;48.972;12.794;2023-10-13T03:18:31;13.30;99.90
27759;DHT22;15148;48.972;12.794;2023-10-13T03:23:36;13.30;99.90
27759;DHT22;15148;48.972;12.794;2023-10-13T03:28:47;13.30;99.90
27759;DHT22;15148;48.972;12.794;2023-10-13T03:33:57;13.20;99.90
27759;DHT22;15148;48.972;12.794;2023-10-13T03:39:01;13.20;99.90
27759;DHT22;15148;48.972;12.794;2023-10-13T03:44:08;13.20;99.90
27759;DHT22;15148;48.972;12.794;2023-10-13T03:49:16;13.10;99.90
27759;DHT22;15148;48.972;12.794;2023-10-13T03:54:23;13.10;99.90
27759;DHT22;15148;48.972;12.794;2023-10-13T03:59:25;13.10;99.90
27759;DHT22;15148;48.972;12.794;2023-10-13T04:04:36;13.10;99.90
27759;DHT22;15148;48.972;12.794;2023-10-13T04:09:50;13.00;99.90
27759;DHT22;15148;48.972;12.794;2023-10-13T04:14:52;13.00;99.90
27759;DHT22;15148;48.972;12.794;2023-10-13T04:20:06;13.00;99.90
27759;DHT22;15148;48.972;12.794;2023-10-13T04:25:08;13.00;99.90
27759;DHT22;15148;48.972;12.794;2023-10-13T04:30:36;13.00;99.90
27759;DHT22;15148;48.972;12.794;2023-10-13T04:35:53;13.00;99.90
27759;DHT22;15148;48.972;12.794;2023-10-13T04:41:00;12.90;99.90
27759;DHT22;15148;48.972;12.794;2023-10-13T04:46:04;12.90;99.90
27759;DHT22;15148;48.972;12.794;2023-10-13T04:51:24;12.90;99.90
27759;DHT22;15148;48.972;12.794;2023-10-13T04:56:44;12.90;99.90
27759;DHT22;15148;48.972;12.794;2023-10-13T05:02:02;12.80;99.90
27759;DHT22;15148;48.972;12.794;2023-10-13T05:07:24;12.80;99.90
27759;DHT22;15148;48.972;12.794;2023-10-13T05:12:44;12.70;99.90
27759;DHT22;15148;48.972;12.794;2023-10-13T05:18:04;12.70;99.90
27759;DHT22;15148;48.972;12.794;2023-10-13T05:23:25;12.70;99.90
27759;DHT22;15148;48.972;12.794;2023-10-13T05:28:45;12.70;99.90
27759;DHT22;15148;48.972;12.794;2023-10-13T05:34:23;12.80;99.90
27759;DHT22;15148;48.972;12.794;2023-10-13T05:39:43;12.70;99.90
27759;DHT22;15148;48.972;12.794;2023-10-13T05:45:03;12.70;99.90
27759;DHT22;15148;48.972;12.794;2023-10-13T05:50:17;12.70;99.90
27759;DHT22;15148;48.972;12.794;2023-10-13T05:55:24;12.60;99.90
27759;DHT22;15148;48.972;12.794;2023-10-13T06:00:45;12.50;99.90
27759;DHT22;15148;48.972;12.794;2023-10-13T06:06:07;12.50;99.90
27759;DHT22;15148;48.972;12.794;2023-10-13T06:11:27;12.60;99.90
27759;DHT22;15148;48.972;12.794;2023-10-13T06:16:48;12.60;99.90
27759;DHT22;15148;48.972;12.794;2023-10-13T06:22:08;12.70;99.90
27759;DHT22;15148;48.972;12.794;2023-10-13T06:27:29;12.80;99.90
27759;DHT22;15148;48.972;12.794;2023-10-13T06:32:49;12.90;99.90
27759;DHT22;15148;48.972;12.794;2023-10-13T06:37:52;13.00;99.90
27759;DHT22;15148;48.972;12.794;2023-10-13T06:42:54;13.20;99.90
27759;DHT22;15148;48.972;12.794;2023-10-13T06:48:20;13.30;99.90
27759;DHT22;15148;48.972;12.794;2023-10-13T06:53:22;13.50;99.90
27759;DHT22;15148;48.972;12.794;2023-10-13T06:58:26;13.80;99.90
27759;DHT22;15148;48.972;12.794;2023-10-13T07:03:29;14.00;99.90
27759;DHT22;15148;48.972;12.794;2023-10-13T07:08:31;14.20;99.90
27759;DHT22;15148;48.972;12.794;2023-10-13T07:13:38;14.40;99.90
27759;DHT22;15148;48.972;12.794;2023-10-13T07:18:41;14.60;99.90
27759;DHT22;15148;48.972;12.794;2023-10-13T07:23:51;14.80;99.90
27759;DHT22;15148;48.972;12.794;2023-10-13T07:29:02;15.00;99.90
27759;DHT22;15148;48.972;12.794;2023-10-13T07:34:04;15.30;99.90
27759;DHT22;15148;48.972;12.794;2023-10-13T07:39:14;15.50;99.90
27759;DHT22;15148;48.972;12.794;2023-10-13T07:44:24;15.80;99.90
27759;DHT22;15148;48.972;12.794;2023-10-13T07:49:29;16.00;99.90
27759;DHT22;15148;48.972;12.794;2023-10-13T07:54:38;16.40;99.90
27759;DHT22;15148;48.972;12.794;2023-10-13T07:59:45;16.70;99.90
27759;DHT22;15148;48.972;12.794;2023-10-13T08:04:51;17.10;99.90
27759;DHT22;15148;48.972;12.794;2023-10-13T08:09:54;17.30;99.90
27759;DHT22;15148;48.972;12.794;2023-10-13T08:14:56;17.60;99.90
27759;DHT22;15148;48.972;12.794;2023-10-13T08:20:13;17.80;99.90
27759;DHT22;15148;48.972;12.794;2023-10-13T08:25:18;18.00;99.90
27759;DHT22;15148;48.972;12.794;2023-10-13T08:30:26;18.10;99.90
27759;DHT22;15148;48.972;12.794;2023-10-13T08:35:30;18.30;99.90
27759;DHT22;15148;48.972;12.794;2023-10-13T08:40:32;18.40;99.90
27759;DHT22;15148;48.972;12.794;2023-10-13T08:45:52;18.60;99.90
27759;DHT22;15148;48.972;12.794;2023-10-13T08:50:56;18.70;99.90
27759;DHT22;15148;48.972;12.794;2023-10-13T08:56:07;18.80;99.90
27759;DHT22;15148;48.972;12.794;2023-10-13T09:01:15;18.90;99.90
27759;DHT22;15148;48.972;12.794;2023-10-13T09:06:36;19.10;99.90
27759;DHT22;15148;48.972;12.794;2023-10-13T09:11:38;19.20;99.90
27759;DHT22;15148;48.972;12.794;2023-10-13T09:17:01;19.30;99.90
27759;DHT22;15148;48.972;12.794;2023-10-13T09:22:10;19.30;99.90
27759;DHT22;15148;48.972;12.794;2023-10-13T09:27:29;19.50;99.90
27759;DHT22;15148;48.972;12.794;2023-10-13T09:32:31;19.60;99.90
27759;DHT22;15148;48.972;12.794;2023-10-13T09:37:35;19.70;99.90
27759;DHT22;15148;48.972;12.794;2023-10-13T09:42:39;19.80;99.90
27759;DHT22;15148;48.972;12.794;2023-10-13T09:47:41;19.80;99.90
27759;DHT22;15148;48.972;12.794;2023-10-13T09:52:45;19.90;99.90
27759;DHT22;15148;48.972;12.794;2023-10-13T09:57:53;20.10;99.90
27759;DHT22;15148;48.972;12.794;2023-10-13T10:02:59;20.10;99.90
27759;DHT22;15148;48.972;12.794;2023-10-13T10:08:26;20.20;99.90
27759;DHT22;15148;48.972;12.794;2023-10-13T10:19:00;20.60;99.90
27759;DHT22;15148;48.972;12.794;2023-10-13T10:24:20;20.70;99.90
27759;DHT22;15148;48.972;12.794;2023-10-13T10:29:27;20.90;99.90
27759;DHT22;15148;48.972;12.794;2023-10-13T10:34:31;21.00;99.90
27759;DHT22;15148;48.972;12.794;2023-10-13T10:39:37;21.20;99.90
27759;DHT22;15148;48.972;12.794;2023-10-13T10:44:49;21.30;99.90
27759;DHT22;15148;48.972;12.794;2023-10-13T10:50:00;21.40;99.90
27759;DHT22;15148;48.972;12.794;2023-10-13T10:55:11;21.50;99.90
27759;DHT22;15148;48.972;12.794;2023-10-13T11:00:20;21.60;99.90
27759;DHT22;15148;48.972;12.794;2023-10-13T11:05:25;21.70;99.90
27759;DHT22;15148;48.972;12.794;2023-10-13T11:10:34;21.80;99.90
27759;DHT22;15148;48.972;12.794;2023-10-13T11:15:44;22.00;99.90
27759;DHT22;15148;48.972;12.794;2023-10-13T11:20:50;22.00;99.90
27759;DHT22;15148;48.972;12.794;2023-10-13T11:25:58;21.90;99.90
27759;DHT22;15148;48.972;12.794;2023-10-13T11:31:01;21.90;99.90
27759;DHT22;15148;48.972;12.794;2023-10-13T11:36:21;21.80;99.90
27759;DHT22;15148;48.972;12.794;2023-10-13T11:41:31;21.90;99.90
27759;DHT22;15148;48.972;12.794;2023-10-13T11:46:37;22.10;99.90
27759;DHT22;15148;48.972;12.794;2023-10-13T11:51:40;22.20;99.90
27759;DHT22;15148;48.972;12.794;2023-10-13T11:56:47;22.30;99.90
27759;DHT22;15148;48.972;12.794;2023-10-13T12:01:50;22.40;99.90
27759;DHT22;15148;48.972;12.794;2023-10-13T12:07:11;22.50;99.90
27759;DHT22;15148;48.972;12.794;2023-10-13T12:12:12;22.70;99.90
27759;DHT22;15148;48.972;12.794;2023-10-13T12:17:15;22.70;99.90
27759;DHT22;15148;48.972;12.794;2023-10-13T12:22:20;22.80;99.90
27759;DHT22;15148;48.972;12.794;2023-10-13T12:27:40;22.90;99.90
27759;DHT22;15148;48.972;12.794;2023-10-13T12:32:50;23.10;99.90
27759;DHT22;15148;48.972;12.794;2023-10-13T12:38:10;23.20;99.90
27759;DHT22;15148;48.972;12.794;2023-10-13T12:43:38;23.30;99.90
27759;DHT22;15148;48.972;12.794;2023-10-13T12:49:00;23.50;99.90
27759;DHT22;15148;48.972;12.794;2023-10-13T12:54:27;23.50;99.90
27759;DHT22;15148;48.972;12.794;2023-10-13T12:59:37;23.50;99.90
27759;DHT22;15148;48.972;12.794;2023-10-13T13:04:41;23.40;99.90
27759;DHT22;15148;48.972;12.794;2023-10-13T13:09:46;23.40;99.90
27759;DHT22;15148;48.972;12.794;2023-10-13T13:14:47;23.40;99.90
27759;DHT22;15148;48.972;12.794;2023-10-13T13:19:49;23.30;99.90
27759;DHT22;15148;48.972;12.794;2023-10-13T13:24:51;23.20;99.90
27759;DHT22;15148;48.972;12.794;2023-10-13T13:29:54;23.10;99.90
27759;DHT22;15148;48.972;12.794;2023-10-13T13:34:58;23.10;99.90
27759;DHT22;15148;48.972;12.794;2023-10-13T13:40:06;23.00;99.90
27759;DHT22;15148;48.972;12.794;2023-10-13T13:45:18;22.70;99.90
27759;DHT22;15148;48.972;12.794;2023-10-13T13:50:25;22.50;99.90
27759;DHT22;15148;48.972;12.794;2023-10-13T13:55:33;22.20;99.90
27759;DHT22;15148;48.972;12.794;2023-10-13T14:00:37;22.10;99.90
27759;DHT22;15148;48.972;12.794;2023-10-13T14:05:43;22.00;99.90
27759;DHT22;15148;48.972;12.794;2023-10-13T14:10:45;21.90;99.90
27759;DHT22;15148;48.972;12.794;2023-10-13T14:16:06;21.80;99.90
27759;DHT22;15148;48.972;12.794;2023-10-13T14:21:12;21.60;99.90
27759;DHT22;15148;48.972;12.794;2023-10-13T14:26:26;21.50;99.90
27759;DHT22;15148;48.972;12.794;2023-10-13T14:31:28;21.40;99.90
27759;DHT22;15148;48.972;12.794;2023-10-13T14:36:30;21.20;99.90
27759;DHT22;15148;48.972;12.794;2023-10-13T14:41:37;21.00;99.90
27759;DHT22;15148;48.972;12.794;2023-10-13T14:46:41;21.00;99.90
27759;DHT22;15148;48.972;12.794;2023-10-13T14:51:44;20.90;99.90
27759;DHT22;15148;48.972;12.794;2023-10-13T14:56:46;20.80;99.90
27759;DHT22;15148;48.972;12.794;2023-10-13T15:01:48;20.70;99.90
27759;DHT22;15148;48.972;12.794;2023-10-13T15:06:51;20.70;99.90
27759;DHT22;15148;48.972;12.794;2023-10-13T15:11:53;20.60;99.90
27759;DHT22;15148;48.972;12.794;2023-10-13T15:16:55;20.50;99.90
27759;DHT22;15148;48.972;12.794;2023-10-13T15:22:03;20.30;99.90
27759;DHT22;15148;48.972;12.794;2023-10-13T15:27:07;20.30;99.90
27759;DHT22;15148;48.972;12.794;2023-10-13T15:32:10;20.10;99.90
27759;DHT22;15148;48.972;12.794;2023-10-13T15:37:30;19.90;99.90
27759;DHT22;15148;48.972;12.794;2023-10-13T15:42:32;19.60;99.90
27759;DHT22;15148;48.972;12.794;2023-10-13T15:47:34;19.30;99.90
27759;DHT22;15148;48.972;12.794;2023-10-13T15:52:40;19.10;99.90
27759;DHT22;15148;48.972;12.794;2023-10-13T15:57:47;18.70;99.90
27759;DHT22;15148;48.972;12.794;2023-10-13T16:02:55;18.50;99.90
27759;DHT22;15148;48.972;12.794;2023-10-13T16:07:59;18.30;99.90
27759;DHT22;15148;48.972;12.794;2023-10-13T16:13:03;18.00;99.90
27759;DHT22;15148;48.972;12.794;2023-10-13T16:18:07;17.70;99.90
27759;DHT22;15148;48.972;12.794;2023-10-13T16:23:09;17.50;99.90
27759;DHT22;15148;48.972;12.794;2023-10-13T16:28:11;17.30;99.90
27759;DHT22;15148;48.972;12.794;2023-10-13T16:33:13;17.10;99.90
27759;DHT22;15148;48.972;12.794;2023-10-13T16:38:16;17.10;99.90
27759;DHT22;15148;48.972;12.794;2023-10-13T16:43:18;16.90;99.90
27759;DHT22;15148;48.972;12.794;2023-10-13T16:48:20;16.80;99.90
27759;DHT22;15148;48.972;12.794;2023-10-13T16:53:21;16.60;99.90
27759;DHT22;15148;48.972;12.794;2023-10-13T16:58:24;16.40;99.90
27759;DHT22;15148;48.972;12.794;2023-10-13T17:03:25;16.30;99.90
27759;DHT22;15148;48.972;12.794;2023-10-13T17:08:34;16.30;99.90
27759;DHT22;15148;48.972;12.794;2023-10-13T17:13:38;16.10;99.90
27759;DHT22;15148;48.972;12.794;2023-10-13T17:18:41;16.10;99.90
27759;DHT22;15148;48.972;12.794;2023-10-13T17:23:46;16.10;99.90
27759;DHT22;15148;48.972;12.794;2023-10-13T17:28:51;16.10;99.90
27759;DHT22;15148;48.972;12.794;2023-10-13T17:33:56;16.10;99.90
27759;DHT22;15148;48.972;12.794;2023-10-13T17:39:01;16.00;99.90
27759;DHT22;15148;48.972;12.794;2023-10-13T17:44:03;15.80;99.90
27759;DHT22;15148;48.972;12.794;2023-10-13T17:49:05;15.70;99.90
27759;DHT22;15148;48.972;12.794;2023-10-13T17:54:06;15.70;99.90
27759;DHT22;15148;48.972;12.794;2023-10-13T17:59:08;15.60;99.90
27759;DHT22;15148;48.972;12.794;2023-10-13T18:04:10;15.40;99.90
27759;DHT22;15148;48.972;12.794;2023-10-13T18:09:17;15.40;99.90
27759;DHT22;15148;48.972;12.794;2023-10-13T18:14:19;15.10;99.90
27759;DHT22;15148;48.972;12.794;2023-10-13T18:19:21;15.10;99.90
27759;DHT22;15148;48.972;12.794;2023-10-13T18:24:27;15.00;99.90
27759;DHT22;15148;48.972;12.794;2023-10-13T18:29:29;14.80;99.90
27759;DHT22;15148;48.972;12.794;2023-10-13T18:34:31;14.80;99.90
27759;DHT22;15148;48.972;12.794;2023-10-13T18:39:33;14.70;99.90
27759;DHT22;15148;48.972;12.794;2023-10-13T18:44:35;14.70;99.90
27759;DHT22;15148;48.972;12.794;2023-10-13T18:49:37;14.70;99.90
27759;DHT22;15148;48.972;12.794;2023-10-13T18:54:39;14.60;99.90
27759;DHT22;15148;48.972;12.794;2023-10-13T18:59:42;14.50;99.90
27759;DHT22;15148;48.972;12.794;2023-10-13T19:04:45;14.50;99.90
27759;DHT22;15148;48.972;12.794;2023-10-13T19:09:48;14.40;99.90
27759;DHT22;15148;48.972;12.794;2023-10-13T19:14:50;14.20;99.90
27759;DHT22;15148;48.972;12.794;2023-10-13T19:19:52;14.20;99.90
27759;DHT22;15148;48.972;12.794;2023-10-13T19:24:54;14.10;99.90
27759;DHT22;15148;48.972;12.794;2023-10-13T19:29:56;14.00;99.90
27759;DHT22;15148;48.972;12.794;2023-10-13T19:34:58;14.00;99.90
27759;DHT22;15148;48.972;12.794;2023-10-13T19:39:59;14.00;99.90
27759;DHT22;15148;48.972;12.794;2023-10-13T19:45:02;13.90;99.90
27759;DHT22;15148;48.972;12.794;2023-10-13T19:50:05;13.90;99.90
27759;DHT22;15148;48.972;12.794;2023-10-13T19:55:07;13.90;99.90
27759;DHT22;15148;48.972;12.794;2023-10-13T20:00:10;13.90;99.90
27759;DHT22;15148;48.972;12.794;2023-10-13T20:05:21;13.80;99.90
27759;DHT22;15148;48.972;12.794;2023-10-13T20:10:23;13.80;99.90
27759;DHT22;15148;48.972;12.794;2023-10-13T20:15:25;13.60;99.90
27759;DHT22;15148;48.972;12.794;2023-10-13T20:20:29;13.60;99.90
27759;DHT22;15148;48.972;12.794;2023-10-13T20:25:31;13.60;99.90
27759;DHT22;15148;48.972;12.794;2023-10-13T20:30:35;13.60;99.90
27759;DHT22;15148;48.972;12.794;2023-10-13T20:35:48;13.50;99.90
27759;DHT22;15148;48.972;12.794;2023-10-13T20:40:57;13.40;99.90
27759;DHT22;15148;48.972;12.794;2023-10-13T20:46:04;13.30;99.90
27759;DHT22;15148;48.972;12.794;2023-10-13T20:51:07;13.30;99.90
27759;DHT22;15148;48.972;12.794;2023-10-13T20:56:11;13.30;99.90
27759;DHT22;15148;48.972;12.794;2023-10-13T21:01:16;13.30;99.90
27759;DHT22;15148;48.972;12.794;2023-10-13T21:06:23;13.30;99.90
27759;DHT22;15148;48.972;12.794;2023-10-13T21:11:25;13.40;99.90
27759;DHT22;15148;48.972;12.794;2023-10-13T21:16:28;13.40;99.90
27759;DHT22;15148;48.972;12.794;2023-10-13T21:21:30;13.40;99.90
27759;DHT22;15148;48.972;12.794;2023-10-13T21:26:35;13.40;99.90
27759;DHT22;15148;48.972;12.794;2023-10-13T21:31:37;13.40;99.90
27759;DHT22;15148;48.972;12.794;2023-10-13T21:36:42;13.30;99.90
27759;DHT22;15148;48.972;12.794;2023-10-13T21:41:44;13.30;99.90
27759;DHT22;15148;48.972;12.794;2023-10-13T21:46:47;13.30;99.90
27759;DHT22;15148;48.972;12.794;2023-10-13T21:51:49;13.30;99.90
27759;DHT22;15148;48.972;12.794;2023-10-13T21:56:51;13.20;99.90
27759;DHT22;15148;48.972;12.794;2023-10-13T22:01:54;13.20;99.90
27759;DHT22;15148;48.972;12.794;2023-10-13T22:06:56;13.20;99.90
27759;DHT22;15148;48.972;12.794;2023-10-13T22:12:01;13.00;99.90
27759;DHT22;15148;48.972;12.794;2023-10-13T22:17:03;13.00;99.90
27759;DHT22;15148;48.972;12.794;2023-10-13T22:22:06;13.00;99.90
27759;DHT22;15148;48.972;12.794;2023-10-13T22:27:09;13.00;99.90
27759;DHT22;15148;48.972;12.794;2023-10-13T22:32:13;12.90;99.90
27759;DHT22;15148;48.972;12.794;2023-10-13T22:37:15;12.80;99.90
27759;DHT22;15148;48.972;12.794;2023-10-13T22:42:17;12.80;99.90
27759;DHT22;15148;48.972;12.794;2023-10-13T22:47:20;12.80;99.90
27759;DHT22;15148;48.972;12.794;2023-10-13T22:52:22;12.80;99.90
27759;DHT22;15148;48.972;12.794;2023-10-13T22:57:24;12.80;99.90
27759;DHT22;15148;48.972;12.794;2023-10-13T23:02:26;12.70;99.90
27759;DHT22;15148;48.972;12.794;2023-10-13T23:07:28;12.70;99.90
27759;DHT22;15148;48.972;12.794;2023-10-13T23:12:34;12.60;99.90
27759;DHT22;15148;48.972;12.794;2023-10-13T23:17:37;12.60;99.90
27759;DHT22;15148;48.972;12.794;2023-10-13T23:22:39;12.60;99.90
27759;DHT22;15148;48.972;12.794;2023-10-13T23:27:40;12.60;99.90
27759;DHT22;15148;48.972;12.794;2023-10-13T23:32:42;12.50;99.90
27759;DHT22;15148;48.972;12.794;2023-10-13T23:37:44;12.40;99.90
27759;DHT22;15148;48.972;12.794;2023-10-13T23:42:46;12.50;99.90
27759;DHT22;15148;48.972;12.794;2023-10-13T23:47:57;12.40;99.90
27759;DHT22;15148;48.972;12.794;2023-10-13T23:53:00;12.40;99.90
27759;DHT22;15148;48.972;12.794;2023-10-13T23:58:05;12.40;99.90
